Time;durP1;ratioP1;P1;durP2;ratioP2;P2;SDS_P1;SDS_P2;PMS_P1;PMS_P2;Temp;Humidity;BMP_temperature;BMP_pressure;BME280_temperature;BME280_humidity;BME280_pressure;Samples;Min_cycle;Max_cycle;Signal;HPM_P1;HPM_P2
2022/09/20 00:01:31;;;;;;;7.97;2.03;;;18.40;55.40;;;;;;5033577;28;20526;-73
2022/09/20 00:04:00;;;;;;;4.37;1.70;;;18.60;55.80;;;;;;5033755;28;20180;-74
2022/09/20 00:06:30;;;;;;;3.33;1.33;;;18.80;55.50;;;;;;5033110;28;20236;-76
2022/09/20 00:09:00;;;;;;;11.13;1.70;;;19.10;55.70;;;;;;5032647;28;20549;-75
2022/09/20 00:11:30;;;;;;;5.47;2.23;;;19.00;56.00;;;;;;5033270;28;20212;-74
2022/09/20 00:13:59;;;;;;;9.53;2.27;;;18.90;56.70;;;;;;5031705;28;20312;-73
2022/09/20 00:16:30;;;;;;;3.77;1.33;;;18.80;56.90;;;;;;5033545;28;20192;-72
2022/09/20 00:18:59;;;;;;;6.63;1.57;;;18.70;57.80;;;;;;5034257;28;20209;-72
2022/09/20 00:21:30;;;;;;;4.97;1.20;;;19.00;57.10;;;;;;5033243;28;20184;-73
2022/09/20 00:23:58;;;;;;;5.33;1.33;;;19.00;56.60;;;;;;5033440;28;20195;-73
2022/09/20 00:26:27;;;;;;;6.37;1.23;;;19.30;56.50;;;;;;5032397;28;20187;-76
2022/09/20 00:28:56;;;;;;;4.63;1.13;;;19.50;55.90;;;;;;5032037;28;20176;-73
2022/09/20 00:31:25;;;;;;;2.70;1.57;;;19.80;55.20;;;;;;5032860;28;20184;-73
2022/09/20 00:36:43;;;;;;;4.30;1.07;;;19.10;56.80;;;;;;5032231;28;20188;-73
2022/09/20 00:39:14;;;;;;;6.73;1.30;;;19.30;56.30;;;;;;5032504;28;20188;-72
2022/09/20 00:41:42;;;;;;;5.13;1.30;;;19.40;56.00;;;;;;5032833;28;20234;-71
2022/09/20 00:44:46;;;;;;;8.70;1.30;;;19.20;56.90;;;;;;5032500;28;20172;-73
2022/09/20 00:47:25;;;;;;;5.80;1.40;;;19.00;57.10;;;;;;5032863;28;20287;-73
2022/09/20 00:50:05;;;;;;;7.40;1.33;;;19.00;57.20;;;;;;5032761;28;20172;-73
2022/09/20 00:52:33;;;;;;;7.83;1.20;;;19.00;57.60;;;;;;5032565;28;20204;-74
2022/09/20 00:55:03;;;;;;;4.40;1.10;;;18.80;58.10;;;;;;5032350;28;20185;-74
2022/09/20 00:57:34;;;;;;;8.30;1.50;;;18.90;58.30;;;;;;5032601;28;20516;-73
2022/09/20 01:00:08;;;;;;;8.33;1.63;;;19.10;57.70;;;;;;5032854;28;20176;-70
2022/09/20 01:02:40;;;;;;;5.63;1.20;;;19.40;56.70;;;;;;5032251;28;20184;-72
2022/09/20 01:05:09;;;;;;;4.97;1.20;;;19.40;56.40;;;;;;5032932;28;20598;-74
2022/09/20 01:07:37;;;;;;;5.40;1.23;;;19.30;57.00;;;;;;5029720;28;20240;-71
2022/09/20 01:10:05;;;;;;;3.67;1.20;;;19.30;56.90;;;;;;5032321;28;20252;-72
2022/09/20 01:12:34;;;;;;;10.20;1.63;;;19.30;57.20;;;;;;5032217;28;20203;-71
2022/09/20 01:15:05;;;;;;;3.13;1.10;;;19.30;57.70;;;;;;5032262;28;20598;-72
2022/09/20 01:17:36;;;;;;;5.43;1.23;;;19.60;55.90;;;;;;5012808;28;20173;-72
2022/09/20 01:20:18;;;;;;;5.80;1.43;;;19.70;56.10;;;;;;5021686;28;20188;-72
2022/09/20 01:23:06;;;;;;;5.43;1.23;;;19.70;55.70;;;;;;5035910;28;20200;-74
2022/09/20 01:26:05;;;;;;;6.90;1.43;;;19.70;55.60;;;;;;5022206;28;20185;-71
2022/09/20 01:28:34;;;;;;;8.57;1.80;;;19.70;56.10;;;;;;5034526;28;20239;-71
2022/09/20 01:31:24;;;;;;;7.23;1.40;;;19.80;55.70;;;;;;5029734;28;20187;-71
2022/09/20 01:34:00;;;;;;;6.20;1.33;;;20.10;54.40;;;;;;5029233;28;20255;-72
2022/09/20 01:36:51;;;;;;;7.73;1.30;;;20.50;53.40;;;;;;5035131;28;20177;-71
2022/09/20 01:39:50;;;;;;;2.97;1.40;;;20.70;53.30;;;;;;5034318;28;20597;-71
2022/09/20 01:42:18;;;;;;;5.17;1.37;;;20.10;54.60;;;;;;5030731;28;20260;-72
2022/09/20 01:45:01;;;;;;;6.10;1.50;;;20.30;54.10;;;;;;5036051;28;20177;-71
2022/09/20 01:47:51;;;;;;;3.03;1.43;;;19.80;55.10;;;;;;5036163;28;20521;-73
2022/09/20 01:50:53;;;;;;;5.47;1.40;;;19.60;55.50;;;;;;5036298;28;20181;-70
2022/09/20 01:53:47;;;;;;;6.07;1.20;;;19.80;55.00;;;;;;5035111;28;20200;-72
2022/09/20 01:56:43;;;;;;;5.13;0.97;;;20.10;54.00;;;;;;5029759;28;20206;-71
2022/09/20 01:59:16;;;;;;;8.40;1.23;;;20.70;52.90;;;;;;5022678;28;20176;-72
2022/09/20 02:01:58;;;;;;;4.70;1.20;;;21.30;51.90;;;;;;5035344;28;20197;-72
2022/09/20 02:04:49;;;;;;;5.07;1.40;;;21.60;51.70;;;;;;5031070;28;20173;-72
2022/09/20 02:07:47;;;;;;;4.27;1.40;;;21.80;50.10;;;;;;5032688;28;20774;-72
2022/09/20 02:10:15;;;;;;;7.03;1.20;;;21.90;50.60;;;;;;5034094;28;20200;-72
2022/09/20 02:13:31;;;;;;;4.40;1.10;;;22.20;49.90;;;;;;5034709;28;20212;-72
2022/09/20 02:16:30;;;;;;;3.73;1.10;;;22.10;50.30;;;;;;4993788;28;20255;-75
2022/09/20 02:19:31;;;;;;;5.60;1.43;;;22.20;49.30;;;;;;5015651;28;20181;-72
2022/09/20 02:22:28;;;;;;;5.23;1.40;;;22.10;49.50;;;;;;5028244;28;20295;-72
2022/09/20 02:25:10;;;;;;;6.50;1.50;;;22.70;48.90;;;;;;5030091;28;20197;-72
2022/09/20 02:27:41;;;;;;;3.93;1.37;;;22.70;47.60;;;;;;5050129;28;20643;-72
2022/09/20 02:30:14;;;;;;;5.30;1.40;;;23.00;47.00;;;;;;5035132;28;20183;-72
2022/09/20 02:33:04;;;;;;;4.43;1.43;;;22.70;47.90;;;;;;5033766;28;20686;-72
2022/09/20 02:35:38;;;;;;;5.67;1.47;;;22.00;49.80;;;;;;5034646;28;20251;-73
2022/09/20 02:38:17;;;;;;;3.43;1.30;;;21.90;50.30;;;;;;5034850;28;20176;-71
2022/09/20 02:41:03;;;;;;;4.23;1.30;;;22.20;49.50;;;;;;5021952;28;20181;-73
2022/09/20 02:43:53;;;;;;;6.63;1.73;;;22.40;48.80;;;;;;5032142;28;20183;-73
2022/09/20 02:46:48;;;;;;;3.83;1.30;;;22.70;48.80;;;;;;5034759;28;20177;-71
2022/09/20 02:49:33;;;;;;;6.00;1.33;;;22.20;49.80;;;;;;5033231;28;20651;-73
2022/09/20 02:52:20;;;;;;;4.73;1.30;;;21.80;50.40;;;;;;5034611;28;20172;-72
2022/09/20 02:55:06;;;;;;;6.80;1.87;;;21.20;52.40;;;;;;5033271;28;20193;-72
2022/09/20 02:57:53;;;;;;;7.00;1.50;;;21.50;51.60;;;;;;5024323;28;20177;-71
2022/09/20 03:00:35;;;;;;;10.80;1.50;;;22.00;50.50;;;;;;5032565;28;20184;-73
2022/09/20 03:03:32;;;;;;;7.63;1.30;;;21.80;50.00;;;;;;5027465;28;20573;-73
2022/09/20 03:06:23;;;;;;;6.83;1.63;;;21.70;50.50;;;;;;5033177;28;20227;-73
2022/09/20 03:09:20;;;;;;;6.03;1.80;;;21.70;51.50;;;;;;5015935;28;20216;-71
2022/09/20 03:12:18;;;;;;;4.57;1.60;;;21.50;52.10;;;;;;5031425;28;20219;-72
2022/09/20 03:15:26;;;;;;;7.70;1.30;;;21.90;50.50;;;;;;5029781;28;20211;-73
2022/09/20 03:18:11;;;;;;;4.87;1.20;;;22.30;48.40;;;;;;5031929;28;20575;-72
2022/09/20 03:21:09;;;;;;;8.03;1.43;;;22.30;49.20;;;;;;5029930;28;20208;-73
2022/09/20 03:23:54;;;;;;;4.33;1.10;;;22.20;48.50;;;;;;5031665;28;20212;-73
2022/09/20 03:26:30;;;;;;;5.10;1.30;;;22.10;49.20;;;;;;5028873;28;20184;-70
2022/09/20 03:29:04;;;;;;;9.23;1.57;;;22.10;48.90;;;;;;5030324;28;20215;-72
2022/09/20 03:31:43;;;;;;;8.43;1.53;;;22.60;47.90;;;;;;5027091;28;20172;-76
2022/09/20 03:34:25;;;;;;;6.37;1.30;;;22.70;47.40;;;;;;5026979;28;20204;-73
2022/09/20 03:37:34;;;;;;;7.80;1.37;;;22.80;46.90;;;;;;5032227;28;20268;-72
2022/09/20 03:40:13;;;;;;;5.33;1.13;;;22.90;46.90;;;;;;5027290;28;20184;-72
2022/09/20 03:42:48;;;;;;;8.23;1.50;;;23.30;46.40;;;;;;5030679;28;20188;-73
2022/09/20 03:45:21;;;;;;;3.30;1.17;;;23.30;46.10;;;;;;5035437;28;20206;-74
2022/09/20 03:48:21;;;;;;;7.13;1.50;;;23.20;45.60;;;;;;5032613;28;20697;-72
2022/09/20 03:51:04;;;;;;;3.67;1.27;;;23.20;45.50;;;;;;5025210;28;20189;-72
2022/09/20 03:53:51;;;;;;;6.73;1.60;;;23.50;44.70;;;;;;5030880;28;20204;-73
2022/09/20 03:56:39;;;;;;;3.57;1.10;;;23.70;43.90;;;;;;5027847;28;20185;-72
2022/09/20 03:59:20;;;;;;;7.23;1.10;;;23.80;43.80;;;;;;5025430;28;20188;-71
2022/09/20 04:02:23;;;;;;;6.17;1.33;;;23.70;43.30;;;;;;5031105;28;20219;-72
2022/09/20 04:05:16;;;;;;;3.13;0.90;;;23.50;43.20;;;;;;5030651;28;20326;-73
2022/09/20 04:08:05;;;;;;;6.97;1.10;;;23.80;43.40;;;;;;5028291;28;20682;-71
2022/09/20 04:11:07;;;;;;;6.47;1.07;;;23.90;43.30;;;;;;5027028;28;20178;-72
2022/09/20 04:13:40;;;;;;;3.90;1.33;;;23.50;45.10;;;;;;5032162;28;20203;-73
2022/09/20 04:16:31;;;;;;;4.33;1.20;;;23.60;43.90;;;;;;5032957;28;20188;-73
2022/09/20 04:19:24;;;;;;;6.87;1.30;;;23.70;44.20;;;;;;5044635;28;20176;-72
2022/09/20 04:21:59;;;;;;;5.37;1.50;;;23.90;44.10;;;;;;5035688;28;20231;-75
2022/09/20 04:24:32;;;;;;;4.43;1.17;;;23.70;44.20;;;;;;5039891;28;20545;-73
2022/09/20 04:27:25;;;;;;;6.60;1.47;;;23.80;43.90;;;;;;5038180;28;20177;-73
2022/09/20 04:30:04;;;;;;;3.07;1.07;;;24.30;43.80;;;;;;5028874;28;20242;-73
2022/09/20 04:32:35;;;;;;;4.60;1.10;;;24.50;42.40;;;;;;5027720;28;20204;-72
2022/09/20 04:38:14;;;;;;;6.03;1.43;;;24.40;42.90;;;;;;5023622;28;20195;-73
2022/09/20 04:40:59;;;;;;;7.57;1.10;;;25.10;41.80;;;;;;5026146;28;20692;-74
2022/09/20 04:43:35;;;;;;;6.13;1.57;;;25.00;41.30;;;;;;5028198;28;20180;-73
2022/09/20 04:46:26;;;;;;;4.17;1.20;;;24.80;41.60;;;;;;5031725;28;20718;-71
2022/09/20 04:49:11;;;;;;;4.00;1.10;;;24.20;43.20;;;;;;5032581;28;20187;-72
2022/09/20 04:52:13;;;;;;;6.00;1.50;;;24.80;42.00;;;;;;5032464;28;20173;-74
2022/09/20 04:55:13;;;;;;;6.23;1.10;;;25.20;40.90;;;;;;5030951;28;20253;-73
2022/09/20 04:58:03;;;;;;;7.00;1.20;;;25.20;40.40;;;;;;5032019;28;20180;-73
2022/09/20 05:00:59;;;;;;;6.53;1.33;;;24.60;41.60;;;;;;5031720;28;20627;-73
2022/09/20 05:04:12;;;;;;;5.97;1.47;;;24.80;41.80;;;;;;5009732;28;20638;-72
2022/09/20 05:07:21;;;;;;;5.70;1.27;;;25.10;41.10;;;;;;5030730;28;20220;-73
2022/09/20 05:10:20;;;;;;;5.57;1.40;;;25.00;41.60;;;;;;5032183;28;20173;-74
2022/09/20 05:13:20;;;;;;;5.47;1.13;;;24.50;42.60;;;;;;5032074;28;20292;-72
2022/09/20 05:16:23;;;;;;;4.47;1.03;;;24.80;42.10;;;;;;5032200;28;20181;-72
2022/09/20 05:19:06;;;;;;;5.77;1.50;;;24.80;42.50;;;;;;5031822;28;20192;-72
2022/09/20 05:21:48;;;;;;;7.40;1.50;;;25.00;41.80;;;;;;5032607;28;20646;-73
2022/09/20 05:24:24;;;;;;;5.33;1.27;;;24.50;42.60;;;;;;5032842;28;20184;-74
2022/09/20 05:27:07;;;;;;;8.37;1.43;;;24.80;41.30;;;;;;5032448;28;20646;-73
2022/09/20 05:29:49;;;;;;;6.63;1.43;;;24.30;41.40;;;;;;5034631;28;20528;-74
2022/09/20 05:33:04;;;;;;;5.03;0.93;;;24.30;42.40;;;;;;5033374;28;20173;-74
2022/09/20 05:36:00;;;;;;;3.97;1.00;;;23.90;44.40;;;;;;4976333;28;20237;-76
2022/09/20 05:38:43;;;;;;;7.40;1.67;;;24.40;43.70;;;;;;5012676;28;20192;-74
2022/09/20 05:41:30;;;;;;;10.23;1.67;;;24.30;44.60;;;;;;5017808;28;20169;-74
2022/09/20 05:44:23;;;;;;;7.10;1.43;;;24.00;44.60;;;;;;5032248;28;20701;-75
2022/09/20 05:47:18;;;;;;;7.57;1.30;;;23.50;45.70;;;;;;5004143;28;20314;-74
2022/09/20 05:49:54;;;;;;;4.43;1.07;;;23.40;45.50;;;;;;5032208;28;20169;-73
2022/09/20 05:52:52;;;;;;;4.53;1.47;;;23.70;46.00;;;;;;5031756;28;20638;-76
2022/09/20 05:55:41;;;;;;;8.53;1.50;;;23.30;46.50;;;;;;5031842;28;20169;-73
2022/09/20 05:58:32;;;;;;;9.60;1.53;;;23.10;48.20;;;;;;5032007;28;20231;-72
2022/09/20 06:01:22;;;;;;;6.27;1.90;;;22.80;49.10;;;;;;5032143;28;20172;-75
2022/09/20 06:03:55;;;;;;;8.57;1.40;;;22.80;49.30;;;;;;5021381;28;20189;-73
2022/09/20 06:06:38;;;;;;;6.93;1.30;;;22.60;49.20;;;;;;5031878;28;20231;-74
2022/09/20 06:09:39;;;;;;;7.17;1.60;;;23.00;48.50;;;;;;5035597;28;20176;-76
2022/09/20 06:12:46;;;;;;;7.47;1.53;;;22.90;48.30;;;;;;5035623;28;20191;-75
2022/09/20 06:15:25;;;;;;;8.33;1.67;;;22.50;49.40;;;;;;5032635;28;20195;-75
2022/09/20 06:18:12;;;;;;;10.63;1.87;;;22.90;48.60;;;;;;5035502;28;20263;-74
2022/09/20 06:21:17;;;;;;;7.87;1.37;;;23.20;48.30;;;;;;5034972;28;20177;-74
2022/09/20 06:23:45;;;;;;;7.40;1.50;;;22.60;48.70;;;;;;5027446;28;20668;-74
2022/09/20 06:26:19;;;;;;;8.63;1.67;;;22.80;49.00;;;;;;5054742;28;20220;-73
2022/09/20 06:29:09;;;;;;;9.90;1.77;;;23.40;47.20;;;;;;5038359;28;20678;-73
2022/09/20 06:31:36;;;;;;;7.13;1.70;;;24.20;45.80;;;;;;5034414;28;20200;-74
2022/09/20 06:34:10;;;;;;;7.73;1.53;;;23.70;47.80;;;;;;5034768;28;20219;-73
2022/09/20 06:42:33;;;;;;;8.27;1.70;;;23.10;48.80;;;;;;5034708;28;20192;-76
2022/09/20 06:45:02;;;;;;;7.03;1.60;;;22.70;49.80;;;;;;5034699;28;20623;-74
2022/09/20 06:47:29;;;;;;;7.83;1.73;;;21.60;52.30;;;;;;5034694;28;20623;-74
2022/09/20 06:49:57;;;;;;;6.20;1.50;;;22.10;51.30;;;;;;5034713;28;20176;-74
2022/09/20 06:52:25;;;;;;;6.00;1.37;;;22.50;50.50;;;;;;5034785;28;20227;-75
2022/09/20 06:54:54;;;;;;;8.20;1.50;;;21.80;52.20;;;;;;5033974;28;20185;-77
2022/09/20 06:57:33;;;;;;;4.83;1.63;;;21.80;52.00;;;;;;5034401;28;20219;-77
2022/09/20 07:00:01;;;;;;;11.40;1.47;;;21.60;52.20;;;;;;5034536;28;20310;-73
2022/09/20 07:02:28;;;;;;;5.00;1.10;;;21.10;53.10;;;;;;5034297;28;20173;-76
2022/09/20 07:04:56;;;;;;;5.67;1.40;;;21.60;52.60;;;;;;5033712;28;20561;-75
2022/09/20 07:07:24;;;;;;;6.93;1.50;;;21.80;51.90;;;;;;5034058;28;20683;-73
2022/09/20 07:09:51;;;;;;;8.27;1.80;;;21.80;51.70;;;;;;5033760;28;20193;-76
2022/09/20 07:12:20;;;;;;;9.03;1.60;;;21.30;52.80;;;;;;5033892;28;20517;-75
2022/09/20 07:14:49;;;;;;;6.63;1.40;;;20.80;55.00;;;;;;5033653;28;20267;-76
2022/09/20 07:17:17;;;;;;;12.13;1.70;;;20.50;55.60;;;;;;5033784;28;20169;-77
2022/09/20 07:19:45;;;;;;;7.77;1.80;;;19.90;57.50;;;;;;5032494;28;20204;-76
2022/09/20 07:22:13;;;;;;;6.83;1.90;;;19.50;59.40;;;;;;5034239;28;20592;-76
2022/09/20 07:24:40;;;;;;;11.27;1.70;;;19.30;60.50;;;;;;5033391;28;20586;-75
2022/09/20 07:27:10;;;;;;;9.07;1.60;;;18.90;61.30;;;;;;5033769;28;20674;-73
2022/09/20 07:29:39;;;;;;;7.67;1.90;;;18.70;62.30;;;;;;5034133;28;20169;-75
2022/09/20 07:32:07;;;;;;;13.97;2.27;;;18.60;62.90;;;;;;5033616;28;20539;-78
2022/09/20 07:34:34;;;;;;;10.77;2.03;;;18.50;63.20;;;;;;5033300;28;20303;-75
2022/09/20 07:37:02;;;;;;;9.60;2.60;;;18.30;63.40;;;;;;5033672;28;20676;-75
2022/09/20 07:39:29;;;;;;;5.57;1.47;;;18.30;63.60;;;;;;5033457;28;20258;-74
2022/09/20 07:41:57;;;;;;;8.67;2.27;;;18.20;64.00;;;;;;5033757;28;20169;-75
2022/09/20 07:44:24;;;;;;;7.90;2.27;;;18.30;64.10;;;;;;5032332;28;20255;-79
2022/09/20 07:46:54;;;;;;;17.83;1.87;;;18.20;64.30;;;;;;5033305;28;20233;-73
2022/09/20 07:49:22;;;;;;;6.53;1.97;;;18.10;64.80;;;;;;5022011;28;20552;-73
2022/09/20 07:51:50;;;;;;;11.67;2.17;;;18.00;65.00;;;;;;5032642;28;20185;-74
2022/09/20 07:54:18;;;;;;;9.13;2.30;;;18.00;65.30;;;;;;5033005;28;20524;-74
2022/09/20 07:56:46;;;;;;;6.83;2.13;;;17.90;65.00;;;;;;5033305;28;20184;-74
2022/09/20 07:59:14;;;;;;;8.33;2.03;;;17.80;65.50;;;;;;5033286;28;20235;-74
2022/09/20 08:01:42;;;;;;;7.37;2.20;;;17.80;65.90;;;;;;5033814;28;20191;-75
2022/09/20 08:04:10;;;;;;;8.33;2.17;;;17.70;66.00;;;;;;5027141;28;20189;-76
2022/09/20 08:06:44;;;;;;;10.13;1.80;;;17.70;66.50;;;;;;5025685;28;20257;-75
2022/09/20 08:09:13;;;;;;;7.60;2.10;;;17.70;66.90;;;;;;5033796;28;20208;-76
2022/09/20 08:11:42;;;;;;;8.37;1.80;;;17.60;67.10;;;;;;5024853;28;20173;-72
2022/09/20 08:14:16;;;;;;;9.37;2.10;;;17.60;67.30;;;;;;5030425;28;20223;-73
2022/09/20 08:16:46;;;;;;;8.47;2.30;;;17.50;67.30;;;;;;5013653;28;20192;-72
2022/09/20 08:19:19;;;;;;;10.03;2.43;;;17.40;67.50;;;;;;5032122;28;20234;-74
2022/09/20 08:21:47;;;;;;;7.73;1.70;;;17.50;67.90;;;;;;5033309;28;20176;-72
2022/09/20 08:24:15;;;;;;;10.50;2.10;;;17.50;68.30;;;;;;5033027;28;20200;-72
2022/09/20 08:26:43;;;;;;;6.87;1.77;;;17.50;68.70;;;;;;5032633;28;20188;-72
2022/09/20 08:29:11;;;;;;;11.53;1.90;;;17.50;69.00;;;;;;5032451;28;20690;-72
2022/09/20 08:31:41;;;;;;;6.03;1.53;;;17.40;69.00;;;;;;5032752;28;20575;-80
2022/09/20 08:34:11;;;;;;;13.00;2.80;;;17.40;69.10;;;;;;5032432;28;20639;-74
2022/09/20 08:36:46;;;;;;;5.10;1.60;;;17.30;68.90;;;;;;5032620;28;20230;-73
2022/09/20 08:39:14;;;;;;;8.90;2.00;;;17.30;68.80;;;;;;5032963;28;20567;-76
2022/09/20 08:41:56;;;;;;;11.60;2.60;;;17.30;69.00;;;;;;5032257;28;20566;-73
2022/09/20 08:44:38;;;;;;;7.97;1.80;;;17.30;69.10;;;;;;5032824;28;20176;-72
2022/09/20 08:47:26;;;;;;;6.87;1.80;;;17.30;69.00;;;;;;5032458;28;20182;-73
2022/09/20 08:49:54;;;;;;;7.80;2.13;;;17.30;69.10;;;;;;5030884;28;20225;-75
2022/09/20 08:52:29;;;;;;;9.03;2.30;;;17.30;69.00;;;;;;5023801;28;20203;-73
2022/09/20 08:54:58;;;;;;;10.07;2.43;;;17.30;69.20;;;;;;5032172;28;20189;-72
2022/09/20 08:57:30;;;;;;;7.90;1.70;;;17.30;69.60;;;;;;5032654;28;20251;-74
2022/09/20 09:00:02;;;;;;;11.90;2.10;;;17.20;69.80;;;;;;5031004;28;20238;-75
2022/09/20 09:02:33;;;;;;;10.60;2.37;;;17.30;70.10;;;;;;5024507;28;20219;-72
2022/09/20 09:05:00;;;;;;;8.60;2.60;;;17.20;70.50;;;;;;5028890;28;20226;-73
2022/09/20 09:07:29;;;;;;;11.63;2.53;;;17.20;70.80;;;;;;5030072;28;20251;-74
2022/09/20 09:09:57;;;;;;;13.47;2.03;;;17.10;71.00;;;;;;5024599;28;20187;-75
2022/09/20 09:12:28;;;;;;;11.33;2.73;;;17.10;70.90;;;;;;5027290;28;20180;-73
2022/09/20 09:15:04;;;;;;;9.20;1.97;;;17.20;71.00;;;;;;5031946;28;20184;-74
2022/09/20 09:17:32;;;;;;;9.07;2.47;;;17.10;71.20;;;;;;5032152;28;20172;-74
2022/09/20 09:20:06;;;;;;;9.53;2.00;;;17.10;71.40;;;;;;5032245;28;20172;-74
2022/09/20 09:22:43;;;;;;;7.97;1.73;;;17.10;71.20;;;;;;5032254;28;20533;-74
2022/09/20 09:25:33;;;;;;;9.83;2.17;;;17.20;70.90;;;;;;5031093;28;20187;-74
2022/09/20 09:28:06;;;;;;;11.30;2.60;;;17.20;71.20;;;;;;5031811;28;20594;-74
2022/09/20 09:30:38;;;;;;;11.60;2.33;;;17.10;71.30;;;;;;5032457;28;20573;-74
2022/09/20 09:33:29;;;;;;;7.73;2.63;;;17.10;71.10;;;;;;5029646;28;20234;-76
2022/09/20 09:36:03;;;;;;;11.63;1.87;;;17.10;70.90;;;;;;5021888;28;20658;-74
2022/09/20 09:38:38;;;;;;;14.87;2.90;;;17.10;70.90;;;;;;5033913;28;20175;-71
2022/09/20 09:41:28;;;;;;;11.43;1.87;;;17.10;71.40;;;;;;5033020;28;20199;-71
2022/09/20 09:44:00;;;;;;;8.73;2.40;;;17.10;71.50;;;;;;5036175;28;20180;-75
2022/09/20 09:46:31;;;;;;;7.97;2.40;;;17.10;71.70;;;;;;5036219;28;20216;-72
2022/09/20 09:49:22;;;;;;;10.63;2.37;;;17.10;71.90;;;;;;5035846;28;20218;-73
2022/09/20 09:52:13;;;;;;;9.07;2.43;;;17.00;72.20;;;;;;5035289;28;20179;-77
2022/09/20 09:54:49;;;;;;;10.93;2.30;;;17.00;72.30;;;;;;5035038;28;20578;-76
2022/09/20 09:57:22;;;;;;;9.03;2.10;;;17.10;72.30;;;;;;5049975;28;20183;-72
2022/09/20 10:00:01;;;;;;;13.53;2.00;;;17.10;72.30;;;;;;5036095;28;20195;-76
2022/09/20 10:02:40;;;;;;;9.93;2.73;;;17.10;72.20;;;;;;5035588;28;20179;-74
2022/09/20 10:05:32;;;;;;;8.63;1.90;;;17.10;72.10;;;;;;5035788;28;20291;-74
2022/09/20 10:08:27;;;;;;;9.20;1.70;;;17.00;72.10;;;;;;5034357;28;20278;-74
2022/09/20 10:11:13;;;;;;;6.67;1.87;;;17.00;72.20;;;;;;5027480;28;20574;-74
2022/09/20 10:14:11;;;;;;;13.80;2.60;;;17.00;72.80;;;;;;5035694;28;20211;-74
2022/09/20 10:16:50;;;;;;;8.60;2.10;;;17.00;72.90;;;;;;5032775;28;20560;-73
2022/09/20 10:19:24;;;;;;;13.00;2.20;;;17.00;73.10;;;;;;5035557;28;20187;-74
2022/09/20 10:22:00;;;;;;;13.53;2.50;;;17.00;73.20;;;;;;5033470;28;20650;-72
2022/09/20 10:24:58;;;;;;;9.20;1.87;;;16.90;73.40;;;;;;5032026;28;20176;-73
2022/09/20 10:27:28;;;;;;;6.27;1.63;;;17.00;73.50;;;;;;5018910;28;20222;-73
2022/09/20 10:30:05;;;;;;;13.53;2.63;;;16.90;73.60;;;;;;5032343;28;20198;-73
2022/09/20 10:32:35;;;;;;;11.10;1.87;;;16.90;73.70;;;;;;5029317;28;20186;-73
2022/09/20 10:35:20;;;;;;;6.73;1.90;;;16.80;73.90;;;;;;5035380;28;20661;-71
2022/09/20 10:38:13;;;;;;;11.50;2.33;;;16.90;74.00;;;;;;5031106;28;20175;-73
2022/09/20 10:44:01;;;;;;;15.27;2.63;;;16.90;74.20;;;;;;5035408;28;20662;-73
2022/09/20 10:46:50;;;;;;;7.97;1.90;;;16.80;74.20;;;;;;5034629;28;20544;-72
2022/09/20 10:49:40;;;;;;;18.33;2.20;;;16.90;74.20;;;;;;5035079;28;20195;-74
2022/09/20 10:52:24;;;;;;;8.63;2.00;;;16.90;74.30;;;;;;5032409;28;20185;-72
2022/09/20 10:55:22;;;;;;;8.53;1.90;;;16.90;74.10;;;;;;5022507;28;20207;-72
2022/09/20 10:58:23;;;;;;;9.00;1.60;;;16.90;74.00;;;;;;5024528;28;20188;-74
2022/09/20 11:01:07;;;;;;;10.93;2.47;;;16.80;73.90;;;;;;5024425;28;20277;-73
2022/09/20 11:03:40;;;;;;;6.60;1.73;;;16.80;74.20;;;;;;5033648;28;20274;-72
2022/09/20 11:06:13;;;;;;;15.10;2.10;;;16.80;74.30;;;;;;5033884;28;20266;-72
2022/09/20 11:08:42;;;;;;;10.43;1.97;;;16.80;74.30;;;;;;5033414;28;20180;-72
2022/09/20 11:11:11;;;;;;;8.03;1.87;;;16.80;74.40;;;;;;5029193;28;20222;-72
2022/09/20 11:13:47;;;;;;;10.73;2.10;;;16.90;74.40;;;;;;5034206;28;20591;-75
2022/09/20 11:16:28;;;;;;;9.80;2.00;;;16.80;74.30;;;;;;5033245;28;20721;-72
2022/09/20 11:19:11;;;;;;;10.53;2.10;;;16.80;74.20;;;;;;5033671;28;20657;-72
2022/09/20 11:21:48;;;;;;;6.57;1.80;;;16.80;74.50;;;;;;5023719;28;20191;-72
2022/09/20 11:24:34;;;;;;;13.37;2.00;;;16.80;74.70;;;;;;5020863;28;20325;-72
2022/09/20 11:27:16;;;;;;;13.57;2.33;;;16.80;75.00;;;;;;5033959;28;20518;-71
2022/09/20 11:30:17;;;;;;;8.43;2.00;;;16.80;75.20;;;;;;5033600;28;20184;-71
2022/09/20 11:33:26;;;;;;;9.73;2.13;;;16.70;75.40;;;;;;5027416;28;20632;-72
2022/09/20 11:35:59;;;;;;;12.73;2.40;;;16.70;75.60;;;;;;5027816;28;20194;-72
2022/09/20 11:38:36;;;;;;;8.27;1.60;;;16.70;75.60;;;;;;5029801;28;20205;-71
2022/09/20 11:41:27;;;;;;;13.33;1.97;;;16.70;75.80;;;;;;5020958;28;20181;-72
2022/09/20 11:44:16;;;;;;;10.37;1.80;;;16.70;75.90;;;;;;5021351;28;20180;-71
2022/09/20 11:47:13;;;;;;;9.60;2.53;;;16.70;76.20;;;;;;5030685;28;20544;-73
2022/09/20 11:50:02;;;;;;;11.53;2.20;;;16.70;76.00;;;;;;5033300;28;20175;-71
2022/09/20 11:52:47;;;;;;;6.83;1.90;;;16.70;76.10;;;;;;5033511;28;20171;-71
2022/09/20 11:55:36;;;;;;;12.27;1.93;;;16.70;76.40;;;;;;5032315;28;20190;-73
2022/09/20 11:58:14;;;;;;;9.03;2.03;;;16.60;76.40;;;;;;5022176;28;20183;-72
2022/09/20 12:00:45;;;;;;;13.13;2.00;;;16.50;76.60;;;;;;5029871;28;20226;-71
2022/09/20 12:03:38;;;;;;;14.20;2.23;;;16.50;76.50;;;;;;5031889;28;20209;-71
2022/09/20 12:06:35;;;;;;;9.90;2.53;;;16.50;76.30;;;;;;5029068;28;20846;-71
2022/09/20 12:09:07;;;;;;;12.60;1.97;;;16.60;76.20;;;;;;5023282;28;20191;-72
2022/09/20 12:11:40;;;;;;;12.13;2.57;;;16.60;76.10;;;;;;5022655;28;20259;-72
2022/09/20 12:14:26;;;;;;;12.27;2.00;;;16.60;76.30;;;;;;5032512;28;20234;-72
2022/09/20 12:16:55;;;;;;;11.20;2.30;;;16.60;76.50;;;;;;5026750;28;20188;-71
2022/09/20 12:19:32;;;;;;;8.03;2.50;;;16.50;76.80;;;;;;5033091;28;20613;-72
2022/09/20 12:21:59;;;;;;;11.20;2.00;;;16.50;76.90;;;;;;5033360;28;20215;-73
2022/09/20 12:24:29;;;;;;;9.90;2.23;;;16.50;76.80;;;;;;5032485;28;20193;-72
2022/09/20 12:27:05;;;;;;;13.50;2.33;;;16.50;76.90;;;;;;5032969;28;20560;-73
2022/09/20 12:29:54;;;;;;;9.90;1.93;;;16.50;77.00;;;;;;5030694;28;20186;-72
2022/09/20 12:32:51;;;;;;;11.33;1.80;;;16.50;76.90;;;;;;5030078;28;20185;-73
2022/09/20 12:35:43;;;;;;;9.03;1.83;;;16.50;77.10;;;;;;5032231;28;20198;-71
2022/09/20 12:38:32;;;;;;;15.53;2.63;;;16.50;77.10;;;;;;5032801;28;20188;-74
2022/09/20 12:41:05;;;;;;;10.37;2.00;;;16.60;77.10;;;;;;5018356;28;20177;-73
2022/09/20 12:43:35;;;;;;;9.97;1.67;;;16.50;77.20;;;;;;5028351;28;20189;-72
2022/09/20 12:46:03;;;;;;;6.97;1.87;;;16.70;76.90;;;;;;5032146;28;20183;-73
2022/09/20 12:48:37;;;;;;;9.80;1.87;;;16.60;77.00;;;;;;5028209;28;20183;-73
2022/09/20 12:54:12;;;;;;;14.50;2.07;;;16.70;77.30;;;;;;5032404;28;20686;-73
2022/09/20 12:56:45;;;;;;;17.13;2.27;;;16.60;77.70;;;;;;5032088;28;20181;-73
2022/09/20 12:59:29;;;;;;;7.63;2.00;;;16.50;78.10;;;;;;5021930;28;20225;-74
2022/09/20 13:02:22;;;;;;;15.20;1.90;;;16.40;78.50;;;;;;5031075;28;20685;-73
2022/09/20 13:04:55;;;;;;;17.17;1.97;;;16.50;78.90;;;;;;5031661;28;20185;-73
2022/09/20 13:07:51;;;;;;;9.00;1.93;;;16.40;79.10;;;;;;5027422;28;20251;-72
2022/09/20 13:10:50;;;;;;;13.90;2.10;;;16.50;79.00;;;;;;5029658;28;20238;-74
2022/09/20 13:13:42;;;;;;;14.53;2.30;;;16.40;79.00;;;;;;5032526;28;20226;-74
2022/09/20 13:16:39;;;;;;;11.97;1.83;;;16.40;79.10;;;;;;5033631;28;20187;-72
2022/09/20 13:19:17;;;;;;;16.33;2.53;;;16.50;78.70;;;;;;5035894;28;20190;-73
2022/09/20 13:21:57;;;;;;;12.23;2.23;;;16.50;78.80;;;;;;5036068;28;20172;-72
2022/09/20 13:24:45;;;;;;;9.13;2.23;;;16.50;79.20;;;;;;5027274;28;20180;-73
2022/09/20 13:27:29;;;;;;;13.97;1.97;;;16.40;79.00;;;;;;5036026;28;20195;-72
2022/09/20 13:30:23;;;;;;;13.80;2.73;;;16.40;79.20;;;;;;5026188;28;20183;-73
2022/09/20 13:32:51;;;;;;;12.83;2.40;;;16.40;79.40;;;;;;5035109;28;20229;-73
2022/09/20 13:35:22;;;;;;;10.80;2.17;;;16.40;79.10;;;;;;5035727;28;20199;-73
2022/09/20 13:38:08;;;;;;;14.13;2.30;;;16.40;79.30;;;;;;5036377;28;20241;-73
2022/09/20 13:40:37;;;;;;;15.90;2.53;;;16.40;79.30;;;;;;5026193;28;20244;-73
2022/09/20 13:43:24;;;;;;;10.40;2.57;;;16.40;79.30;;;;;;5033456;28;20266;-71
2022/09/20 13:46:17;;;;;;;14.07;2.50;;;16.40;79.40;;;;;;5030737;28;20180;-72
2022/09/20 13:48:52;;;;;;;12.23;2.30;;;16.40;79.40;;;;;;5035289;28;20179;-72
2022/09/20 13:51:33;;;;;;;10.10;1.93;;;16.40;79.30;;;;;;5035346;28;20223;-74
2022/09/20 13:54:29;;;;;;;12.73;2.07;;;16.40;79.20;;;;;;5034858;28;20740;-72
2022/09/20 13:57:02;;;;;;;7.17;1.80;;;16.40;79.50;;;;;;5035680;28;20273;-72
2022/09/20 13:59:36;;;;;;;12.00;2.20;;;16.40;79.40;;;;;;5036150;28;20212;-73
2022/09/20 14:02:03;;;;;;;8.13;2.43;;;16.30;79.60;;;;;;5035373;28;20186;-73
2022/09/20 14:04:31;;;;;;;12.67;2.87;;;16.30;79.70;;;;;;5032250;28;20187;-73
2022/09/20 14:07:00;;;;;;;17.03;2.23;;;16.40;79.80;;;;;;5034601;28;20228;-72
2022/09/20 14:09:32;;;;;;;16.23;2.50;;;16.40;79.80;;;;;;5035452;28;20191;-71